createdAt,value
2019-01-18T00:00:03.554Z,8.03
2019-01-18T00:02:35.608Z,7.13
2019-01-18T00:05:07.986Z,7.93
2019-01-18T00:07:40.298Z,6.83
2019-01-18T00:10:12.426Z,5.73
2019-01-18T00:12:44.578Z,5.60
2019-01-18T00:15:16.759Z,5.80
2019-01-18T00:17:49.776Z,7.90
2019-01-18T00:20:25.092Z,5.73
2019-01-18T00:22:57.616Z,6.87
2019-01-18T00:25:30.507Z,8.27
2019-01-18T00:28:02.557Z,6.40
2019-01-18T00:30:34.537Z,6.27
2019-01-18T00:33:06.542Z,5.93
2019-01-18T00:35:42.089Z,6.17
2019-01-18T00:38:14.082Z,5.33
2019-01-18T00:40:46.988Z,6.83
2019-01-18T00:43:18.910Z,5.00
2019-01-18T00:45:50.811Z,5.63
2019-01-18T00:48:22.769Z,8.93
2019-01-18T00:50:54.674Z,7.67
2019-01-18T00:53:26.683Z,6.70
2019-01-18T00:55:58.632Z,7.70
2019-01-18T00:58:30.609Z,6.77
2019-01-18T01:01:02.642Z,9.40
2019-01-18T01:03:34.628Z,7.43
2019-01-18T01:06:09.564Z,8.40
2019-01-18T01:08:41.596Z,5.43
2019-01-18T01:11:13.649Z,6.87
2019-01-18T01:13:45.850Z,7.27
2019-01-18T01:16:19.667Z,5.57
2019-01-18T01:18:52.061Z,6.77
2019-01-18T01:21:23.996Z,9.07
2019-01-18T01:23:55.964Z,6.27
2019-01-18T01:26:27.883Z,7.30
2019-01-18T01:28:59.901Z,9.70
2019-01-18T01:31:31.912Z,8.13
2019-01-18T01:34:03.849Z,10.20
2019-01-18T01:36:35.769Z,6.47
2019-01-18T01:39:11.465Z,8.27
2019-01-18T01:41:43.412Z,6.90
2019-01-18T01:44:15.365Z,8.37
2019-01-18T01:46:47.344Z,7.70
2019-01-18T01:49:19.366Z,9.70
2019-01-18T01:51:51.264Z,7.20
2019-01-18T01:54:23.180Z,7.00
2019-01-18T01:56:55.062Z,6.43
2019-01-18T01:59:27.050Z,12.53
2019-01-18T02:01:58.944Z,7.03
2019-01-18T02:04:30.931Z,5.60
2019-01-18T02:07:03.025Z,7.80
2019-01-18T02:09:34.947Z,8.50
2019-01-18T02:12:06.876Z,8.10
2019-01-18T02:14:38.797Z,7.97
2019-01-18T02:17:10.755Z,7.23
2019-01-18T02:19:42.839Z,8.33
2019-01-18T02:22:14.771Z,7.80
2019-01-18T02:24:46.814Z,8.37
2019-01-18T02:27:18.708Z,8.47
2019-01-18T02:29:56.427Z,8.17
2019-01-18T02:32:24.140Z,11.00
2019-01-18T02:34:56.022Z,5.90
2019-01-18T02:37:27.884Z,9.03
2019-01-18T02:39:59.830Z,8.03
2019-01-18T02:42:31.727Z,7.17
2019-01-18T02:45:03.590Z,9.43
2019-01-18T02:47:35.475Z,8.67
2019-01-18T02:50:09.612Z,8.23
2019-01-18T02:52:41.609Z,10.03
2019-01-18T02:55:14.770Z,7.50
2019-01-18T02:57:46.626Z,9.13
2019-01-18T03:00:24.244Z,6.17
2019-01-18T03:02:56.149Z,7.90
2019-01-18T03:05:28.886Z,7.70
2019-01-18T03:08:03.229Z,9.90
2019-01-18T03:10:35.239Z,7.23
2019-01-18T03:13:07.102Z,8.33
2019-01-18T03:15:38.987Z,8.33
2019-01-18T03:18:10.875Z,7.20
2019-01-18T03:20:42.803Z,6.67
2019-01-18T03:23:15.160Z,4.83
2019-01-18T03:25:47.067Z,8.37
2019-01-18T03:28:18.908Z,8.13
2019-01-18T03:30:51.046Z,7.00
2019-01-18T03:33:23.020Z,6.67
2019-01-18T03:35:54.887Z,7.63
2019-01-18T03:38:26.840Z,5.93
2019-01-18T03:40:58.729Z,7.33
2019-01-18T03:43:30.634Z,8.70
2019-01-18T03:46:02.703Z,7.07
2019-01-18T03:48:34.591Z,5.73
2019-01-18T03:51:06.474Z,8.70
2019-01-18T03:53:38.427Z,5.43
2019-01-18T03:56:10.273Z,8.97
2019-01-18T03:58:42.149Z,5.03
2019-01-18T04:01:14.041Z,7.63
2019-01-18T04:03:45.902Z,6.23
2019-01-18T04:06:19.447Z,6.83
2019-01-18T04:08:51.316Z,6.83
2019-01-18T04:11:23.198Z,5.07
2019-01-18T04:13:55.587Z,5.03
2019-01-18T04:16:27.972Z,7.50
2019-01-18T04:18:59.827Z,4.43
2019-01-18T04:21:33.377Z,7.77
2019-01-18T04:24:05.660Z,8.50
2019-01-18T04:26:37.553Z,9.00
2019-01-18T04:29:09.511Z,7.87
2019-01-18T04:31:41.366Z,10.60
2019-01-18T04:34:13.241Z,5.47
2019-01-18T04:36:45.152Z,8.20
2019-01-18T04:39:17.071Z,6.03
2019-01-18T04:41:50.527Z,4.67
2019-01-18T04:44:23.443Z,6.37
2019-01-18T04:46:55.326Z,8.87
2019-01-18T04:49:27.191Z,9.70
2019-01-18T04:51:59.090Z,8.70
2019-01-18T04:54:32.577Z,10.50
2019-01-18T04:57:04.491Z,7.63
2019-01-18T04:59:36.569Z,7.07
2019-01-18T05:02:08.516Z,8.00
2019-01-18T05:04:44.354Z,9.53
2019-01-18T05:07:16.235Z,6.03
2019-01-18T05:09:48.075Z,6.80
2019-01-18T05:12:19.992Z,7.23
2019-01-18T05:14:51.863Z,7.60
2019-01-18T05:17:23.698Z,8.30
2019-01-18T05:19:55.577Z,8.33
2019-01-18T05:22:27.416Z,9.03
2019-01-18T05:24:59.240Z,9.80
2019-01-18T05:27:31.131Z,8.50
2019-01-18T05:30:03.023Z,8.30
2019-01-18T05:32:34.897Z,8.13
2019-01-18T05:35:08.333Z,8.00
2019-01-18T05:37:40.295Z,9.17
2019-01-18T05:40:14.622Z,6.00
2019-01-18T05:42:46.731Z,7.50
2019-01-18T05:45:20.641Z,9.90
2019-01-18T05:47:52.344Z,8.37
2019-01-18T05:50:27.220Z,8.97
2019-01-18T05:53:00.862Z,10.53
2019-01-18T05:55:32.181Z,10.13
2019-01-18T05:58:03.594Z,7.57
2019-01-18T06:00:55.212Z,8.67
2019-01-18T06:03:23.825Z,10.97
2019-01-18T06:05:55.106Z,9.47
2019-01-18T06:08:26.439Z,10.00
2019-01-18T06:10:57.761Z,9.77
2019-01-18T06:13:32.448Z,7.83
2019-01-18T06:16:03.980Z,10.93
2019-01-18T06:18:35.338Z,8.07
2019-01-18T06:21:06.678Z,7.53
2019-01-18T06:23:38.013Z,11.37
2019-01-18T06:26:09.286Z,9.80
2019-01-18T06:28:40.711Z,13.40
2019-01-18T06:31:12.077Z,13.67
2019-01-18T06:33:43.454Z,15.00
2019-01-18T06:36:14.821Z,11.90
2019-01-18T06:38:46.160Z,13.23
2019-01-18T06:41:23.205Z,11.97
2019-01-18T06:43:54.525Z,12.47
2019-01-18T06:46:27.992Z,13.23
2019-01-18T06:49:00.183Z,12.20
2019-01-18T06:51:35.079Z,13.93
2019-01-18T06:54:06.983Z,14.23
2019-01-18T06:56:41.843Z,10.73
2019-01-18T06:59:16.810Z,14.47
2019-01-18T07:01:48.697Z,13.10
2019-01-18T07:04:20.599Z,19.00
2019-01-18T07:06:54.349Z,12.97
2019-01-18T07:09:27.959Z,13.40
2019-01-18T07:11:59.864Z,13.83
2019-01-18T07:14:33.459Z,13.43
2019-01-18T07:17:20.948Z,16.70
2019-01-18T07:19:52.820Z,17.03
2019-01-18T07:22:24.779Z,17.13
2019-01-18T07:24:58.470Z,19.50
2019-01-18T07:27:30.383Z,15.93
2019-01-18T07:30:02.259Z,17.80
2019-01-18T07:32:34.210Z,17.43
2019-01-18T07:35:06.629Z,18.47
2019-01-18T07:37:38.530Z,18.07
2019-01-18T07:40:12.899Z,18.73
2019-01-18T07:42:46.592Z,16.70
2019-01-18T07:45:24.806Z,17.30
2019-01-18T07:47:56.776Z,18.07
2019-01-18T07:50:28.853Z,16.60
2019-01-18T07:53:00.791Z,15.67
2019-01-18T07:55:32.675Z,15.20
2019-01-18T07:58:07.318Z,12.53
2019-01-18T08:00:41.261Z,11.37
2019-01-18T08:03:13.094Z,13.83
2019-01-18T08:05:44.976Z,16.03
2019-01-18T08:08:16.826Z,13.17
2019-01-18T08:10:48.719Z,14.27
2019-01-18T08:13:20.565Z,11.27
2019-01-18T08:15:52.470Z,11.33
2019-01-18T08:18:24.319Z,14.20
2019-01-18T08:20:56.138Z,11.77
2019-01-18T08:23:28.011Z,12.03
2019-01-18T08:25:59.901Z,13.47
2019-01-18T08:28:31.807Z,11.90
2019-01-18T08:31:03.692Z,12.27
2019-01-18T08:33:35.562Z,13.10
2019-01-18T08:36:07.619Z,12.13
2019-01-18T08:38:39.479Z,10.93
2019-01-18T08:41:11.323Z,13.53
2019-01-18T08:43:43.173Z,12.70
2019-01-18T08:46:16.991Z,15.03
2019-01-18T08:48:48.905Z,13.07
2019-01-18T08:51:20.734Z,12.20
2019-01-18T08:53:52.597Z,12.63
2019-01-18T08:56:24.492Z,11.70
2019-01-18T08:58:56.366Z,11.40
2019-01-18T09:01:28.281Z,10.73
2019-01-18T09:04:00.156Z,10.90
2019-01-18T09:06:31.991Z,12.63
2019-01-18T09:09:05.400Z,12.83
2019-01-18T09:11:37.271Z,11.33
2019-01-18T09:14:09.111Z,12.00
2019-01-18T09:16:41.038Z,14.73
2019-01-18T09:19:12.919Z,10.73
2019-01-18T09:21:44.829Z,11.30
2019-01-18T09:24:16.725Z,10.93
2019-01-18T09:26:48.630Z,10.47
2019-01-18T09:29:20.483Z,10.90
2019-01-18T09:31:52.454Z,10.50
2019-01-18T09:34:24.396Z,9.50
2019-01-18T09:36:56.298Z,10.80
2019-01-18T09:39:28.145Z,8.63
2019-01-18T09:42:00.061Z,12.13
2019-01-18T09:44:33.666Z,10.47
2019-01-18T09:47:07.261Z,10.43
2019-01-18T09:49:39.210Z,9.27
2019-01-18T09:52:11.063Z,8.40
2019-01-18T09:54:43.858Z,9.40
2019-01-18T09:57:15.981Z,9.20
2019-01-18T09:59:47.845Z,8.43
2019-01-18T10:02:19.775Z,8.70
2019-01-18T10:04:51.646Z,7.00
2019-01-18T10:07:24.461Z,9.40
2019-01-18T10:09:56.337Z,8.37
2019-01-18T10:12:28.214Z,7.87
2019-01-18T10:15:00.243Z,8.20
2019-01-18T10:17:32.099Z,7.77
2019-01-18T10:20:04.169Z,7.00
2019-01-18T10:22:36.027Z,7.90
2019-01-18T10:25:09.931Z,8.90
2019-01-18T10:27:41.802Z,7.63
2019-01-18T10:30:23.024Z,8.33
2019-01-18T10:32:54.948Z,8.33
2019-01-18T10:35:26.800Z,9.53
2019-01-18T10:37:58.627Z,11.40
2019-01-18T10:40:30.438Z,9.73
2019-01-18T10:43:02.339Z,11.00
2019-01-18T10:45:34.195Z,8.90
2019-01-18T10:48:06.054Z,10.03
2019-01-18T10:50:37.915Z,8.73
2019-01-18T10:53:09.754Z,9.73
2019-01-18T10:55:41.635Z,8.93
2019-01-18T10:58:13.646Z,9.40
2019-01-18T11:00:45.672Z,12.03
2019-01-18T11:03:17.563Z,10.67
2019-01-18T11:05:49.412Z,12.93
2019-01-18T11:08:21.238Z,10.73
2019-01-18T11:10:53.101Z,10.53
2019-01-18T11:13:25.012Z,11.73
2019-01-18T11:15:56.917Z,9.80
2019-01-18T11:18:28.789Z,10.37
2019-01-18T11:21:12.930Z,8.67
2019-01-18T11:23:44.960Z,8.70
2019-01-18T11:26:16.908Z,8.43
2019-01-18T11:28:48.813Z,8.20
2019-01-18T11:31:23.395Z,8.73
2019-01-18T11:33:54.289Z,8.83
2019-01-18T11:36:26.684Z,7.93
2019-01-18T11:38:58.581Z,10.90
2019-01-18T11:41:30.449Z,11.03
2019-01-18T11:44:02.334Z,9.83
2019-01-18T11:46:34.186Z,9.57
2019-01-18T11:49:06.065Z,10.27
2019-01-18T11:51:37.896Z,10.40
2019-01-18T11:54:09.804Z,7.90
2019-01-18T11:56:41.682Z,9.00
2019-01-18T11:59:13.562Z,8.90
2019-01-18T12:01:45.452Z,7.87
2019-01-18T12:04:17.353Z,9.80
2019-01-18T12:06:49.256Z,8.67
2019-01-18T12:09:21.885Z,7.47
2019-01-18T12:11:53.805Z,8.07
2019-01-18T12:14:25.692Z,7.87
2019-01-18T12:16:57.557Z,8.70
2019-01-18T12:19:29.565Z,7.77
2019-01-18T12:22:01.487Z,8.50
2019-01-18T12:24:33.338Z,8.20
2019-01-18T12:27:05.197Z,7.80
2019-01-18T12:29:37.912Z,8.93
2019-01-18T12:32:09.828Z,9.37
2019-01-18T12:34:41.743Z,9.50
2019-01-18T12:37:13.643Z,9.30
2019-01-18T12:39:45.557Z,9.40
2019-01-18T12:42:17.448Z,9.27
2019-01-18T12:44:49.890Z,9.57
2019-01-18T12:47:21.787Z,9.63
2019-01-18T12:49:54.545Z,7.50
2019-01-18T12:52:26.396Z,7.63
2019-01-18T12:54:58.288Z,4.70
2019-01-18T12:57:30.147Z,6.23
2019-01-18T13:00:02.028Z,4.43
2019-01-18T13:02:35.469Z,3.87
2019-01-18T13:05:12.054Z,4.20
2019-01-18T13:07:43.961Z,3.07
2019-01-18T13:10:15.783Z,4.20
2019-01-18T13:12:47.616Z,3.53
2019-01-18T13:15:24.814Z,4.90
2019-01-18T13:17:56.687Z,2.20
2019-01-18T13:20:29.387Z,1.10
2019-01-18T13:23:01.229Z,2.23
2019-01-18T13:25:33.115Z,2.50
2019-01-18T13:28:05.075Z,2.80
2019-01-18T13:30:37.363Z,0.97
2019-01-18T13:33:09.194Z,1.17
2019-01-18T13:35:41.124Z,1.40
2019-01-18T13:38:12.968Z,1.77
2019-01-18T13:40:44.813Z,2.90
2019-01-18T13:43:16.670Z,2.87
2019-01-18T13:45:48.518Z,3.23
2019-01-18T13:48:22.024Z,3.73
2019-01-18T13:50:53.873Z,3.60
2019-01-18T13:53:25.732Z,3.90
2019-01-18T13:55:57.604Z,3.87
2019-01-18T13:58:29.482Z,4.50
2019-01-18T14:01:01.412Z,5.23
2019-01-18T14:03:33.674Z,7.17
2019-01-18T14:06:05.663Z,4.73
2019-01-18T14:08:37.650Z,4.43
2019-01-18T14:11:17.288Z,4.03
2019-01-18T14:13:49.157Z,3.80
2019-01-18T14:16:21.420Z,3.77
2019-01-18T14:18:53.504Z,3.60
2019-01-18T14:21:25.414Z,6.43
2019-01-18T14:23:57.278Z,6.30
2019-01-18T14:26:29.086Z,4.90
2019-01-18T14:29:01.032Z,6.10
2019-01-18T14:31:32.860Z,6.00
2019-01-18T14:34:04.802Z,6.33
2019-01-18T14:36:36.562Z,5.20
2019-01-18T14:39:11.584Z,7.83
2019-01-18T14:41:43.458Z,4.33
2019-01-18T14:44:15.150Z,5.43
2019-01-18T14:46:46.888Z,9.37
2019-01-18T14:49:18.659Z,7.70
2019-01-18T14:51:50.564Z,8.17
2019-01-18T14:54:22.459Z,7.33
2019-01-18T14:56:54.321Z,7.33
2019-01-18T14:59:26.180Z,7.07
2019-01-18T15:01:58.072Z,7.03
2019-01-18T15:04:29.893Z,9.27
2019-01-18T15:07:01.758Z,7.70
2019-01-18T15:09:33.569Z,7.03
2019-01-18T15:12:05.623Z,9.47
2019-01-18T15:14:37.483Z,8.47
2019-01-18T15:17:09.320Z,7.23
2019-01-18T15:19:41.148Z,8.27
2019-01-18T15:22:13.018Z,7.20
2019-01-18T15:24:44.831Z,10.63
2019-01-18T15:27:16.676Z,8.97
2019-01-18T15:29:48.848Z,8.27
2019-01-18T15:32:20.674Z,5.07
2019-01-18T15:34:52.463Z,3.63
2019-01-18T15:37:24.225Z,5.77
2019-01-18T15:39:55.981Z,6.40
2019-01-18T15:42:27.834Z,4.10
2019-01-18T15:44:59.723Z,5.30
2019-01-18T15:47:31.559Z,7.03
2019-01-18T15:50:03.428Z,3.83
2019-01-18T15:52:35.345Z,4.67
2019-01-18T15:55:08.497Z,5.17
2019-01-18T15:57:40.648Z,6.30
2019-01-18T16:00:21.442Z,6.60
2019-01-18T16:02:53.211Z,4.83
2019-01-18T16:05:25.048Z,5.00
2019-01-18T16:07:56.822Z,6.13
2019-01-18T16:10:28.634Z,4.43
2019-01-18T16:13:00.473Z,6.10
2019-01-18T16:15:59.120Z,10.50
2019-01-18T16:18:31.921Z,4.93
2019-01-18T16:21:03.793Z,5.50
2019-01-18T16:23:35.678Z,6.73
2019-01-18T16:26:07.644Z,7.33
2019-01-18T16:28:39.541Z,8.40
2019-01-18T16:31:11.365Z,8.03
2019-01-18T16:33:43.214Z,8.20
2019-01-18T16:36:15.076Z,8.37
2019-01-18T16:38:46.975Z,10.73
2019-01-18T16:41:21.007Z,11.00
2019-01-18T16:43:52.878Z,10.17
2019-01-18T16:46:24.795Z,13.13
2019-01-18T16:48:56.632Z,10.83
2019-01-18T16:51:28.741Z,11.70
2019-01-18T16:54:00.654Z,11.17
2019-01-18T16:56:32.559Z,12.20
2019-01-18T16:59:04.420Z,12.63
2019-01-18T17:01:36.271Z,13.37
2019-01-18T17:04:08.149Z,12.33
2019-01-18T17:06:40.066Z,12.33
2019-01-18T17:09:11.926Z,13.00
2019-01-18T17:11:43.769Z,13.93
2019-01-18T17:14:15.677Z,13.57
2019-01-18T17:16:47.528Z,12.00
2019-01-18T17:19:19.378Z,11.57
2019-01-18T17:21:51.237Z,11.83
2019-01-18T17:24:23.094Z,10.43
2019-01-18T17:26:54.970Z,9.73
2019-01-18T17:29:26.861Z,9.53
2019-01-18T17:31:58.739Z,9.83
2019-01-18T17:34:30.600Z,11.23
2019-01-18T17:37:17.801Z,11.63
2019-01-18T17:40:28.803Z,10.43
2019-01-18T17:44:04.268Z,10.63
2019-01-18T17:47:02.632Z,10.03
2019-01-18T17:50:33.899Z,9.90
2019-01-18T17:54:05.245Z,10.97
2019-01-18T17:57:45.145Z,12.40
2019-01-18T18:01:23.140Z,12.87
2019-01-18T18:04:55.421Z,11.57
2019-01-18T18:08:17.622Z,11.13
2019-01-18T18:11:44.482Z,12.80
2019-01-18T18:15:15.096Z,11.10
2019-01-18T18:18:27.793Z,14.07
2019-01-18T18:22:27.021Z,13.77
2019-01-18T18:25:55.696Z,12.40
2019-01-18T18:29:31.339Z,13.97
2019-01-18T18:32:48.550Z,15.20
2019-01-18T18:36:05.358Z,11.90
2019-01-18T18:39:37.463Z,11.67
2019-01-18T18:42:40.506Z,12.50
2019-01-18T18:46:22.377Z,12.17
2019-01-18T18:49:54.447Z,12.80
2019-01-18T18:53:05.553Z,13.60
2019-01-18T18:56:30.871Z,13.67
2019-01-18T19:00:03.911Z,12.80
2019-01-18T19:03:42.678Z,12.27
2019-01-18T19:07:09.067Z,15.63
2019-01-18T19:10:39.354Z,16.67
2019-01-18T19:14:35.859Z,14.50
2019-01-18T19:18:04.981Z,13.73
2019-01-18T19:21:25.642Z,13.70
2019-01-18T19:25:09.414Z,15.03
2019-01-18T19:28:30.306Z,13.60
2019-01-18T19:32:05.790Z,14.13
2019-01-18T19:35:50.762Z,13.47
2019-01-18T19:39:22.460Z,12.20
2019-01-18T19:42:36.390Z,15.67
2019-01-18T19:46:06.630Z,14.40
2019-01-18T19:49:44.596Z,14.13
2019-01-18T19:53:22.839Z,12.33
2019-01-18T19:56:34.659Z,13.17
2019-01-18T19:59:43.597Z,14.37
2019-01-18T20:02:55.098Z,14.50
2019-01-18T20:06:37.592Z,13.90
2019-01-18T20:10:13.668Z,16.70
2019-01-18T20:13:59.955Z,14.23
2019-01-18T20:17:05.118Z,13.97
2019-01-18T20:20:22.458Z,14.30
2019-01-18T20:23:48.944Z,12.83
2019-01-18T20:26:42.856Z,15.93
2019-01-18T20:30:19.370Z,14.93
2019-01-18T20:34:00.370Z,15.30
2019-01-18T20:37:24.399Z,13.37
2019-01-18T20:41:15.590Z,14.87
2019-01-18T20:44:21.111Z,13.47
2019-01-18T20:47:35.948Z,15.03
2019-01-18T20:51:04.320Z,13.57
2019-01-18T20:54:59.155Z,16.43
2019-01-18T20:58:10.317Z,15.87
2019-01-18T21:01:46.499Z,13.27
2019-01-18T21:05:15.180Z,15.03
2019-01-18T21:08:14.325Z,16.13
2019-01-18T21:11:21.618Z,15.07
2019-01-18T21:14:26.295Z,14.13
2019-01-18T21:17:41.120Z,14.33
2019-01-18T21:21:29.367Z,14.27
2019-01-18T21:25:05.318Z,13.50
2019-01-18T21:28:30.272Z,17.03
2019-01-18T21:32:29.126Z,15.13
2019-01-18T21:35:26.350Z,14.37
2019-01-18T21:38:51.568Z,14.77
2019-01-18T21:42:15.598Z,14.67
2019-01-18T21:46:03.499Z,13.53
2019-01-18T21:49:25.990Z,15.43
2019-01-18T21:53:06.814Z,13.83
2019-01-18T21:56:27.580Z,14.17
2019-01-18T21:59:35.355Z,13.23
2019-01-18T22:03:03.493Z,15.40
2019-01-18T22:06:14.944Z,15.57
2019-01-18T22:09:41.718Z,12.53
2019-01-18T22:13:09.395Z,14.87
2019-01-18T22:16:48.560Z,18.23
2019-01-18T22:20:47.771Z,14.80
2019-01-18T22:23:58.884Z,14.17
2019-01-18T22:27:33.665Z,17.27
2019-01-18T22:31:02.235Z,14.83
2019-01-18T22:33:55.498Z,14.90
2019-01-18T22:37:22.379Z,17.90
2019-01-18T22:40:43.525Z,17.23
2019-01-18T22:44:04.513Z,14.47
2019-01-18T22:47:26.942Z,17.07
2019-01-18T22:50:31.079Z,15.93
2019-01-18T22:53:47.471Z,15.77
2019-01-18T22:57:08.275Z,16.90
2019-01-18T23:00:42.261Z,14.53
2019-01-18T23:04:20.209Z,11.37
2019-01-18T23:07:41.723Z,16.07
2019-01-18T23:11:21.766Z,16.50
2019-01-18T23:14:54.598Z,15.53
2019-01-18T23:17:50.458Z,14.33
2019-01-18T23:21:29.799Z,15.20
2019-01-18T23:24:37.915Z,13.53
2019-01-18T23:28:33.808Z,17.00
2019-01-18T23:31:35.393Z,14.27
2019-01-18T23:34:34.153Z,14.70
2019-01-18T23:37:44.455Z,16.40
2019-01-18T23:41:20.796Z,13.50
2019-01-18T23:45:05.233Z,14.37
2019-01-18T23:48:22.913Z,14.20
2019-01-18T23:52:02.407Z,13.07
2019-01-18T23:55:35.956Z,14.47
2019-01-18T23:59:14.755Z,15.50
